Time;durP1;ratioP1;P1;durP2;ratioP2;P2;SDS_P1;SDS_P2;PMS_P1;PMS_P2;Temp;Humidity;BMP_temperature;BMP_pressure;BME280_temperature;BME280_humidity;BME280_pressure;Samples;Min_cycle;Max_cycle;Signal;HPM_P1;HPM_P2
2022/05/06 00:02:25;;;;;;;5.40;4.90;;;;;;;12.58;100.00;96623.91;5058130;27;102022;-73
2022/05/06 00:04:52;;;;;;;5.93;4.97;;;;;;;12.66;100.00;96623.44;5053717;27;105696;-73
2022/05/06 00:07:21;;;;;;;5.27;4.80;;;;;;;12.55;100.00;96620.94;5054740;27;101898;-73
2022/05/06 00:09:49;;;;;;;5.40;4.90;;;;;;;12.63;100.00;96625.78;5054649;27;105323;-73
2022/05/06 00:12:18;;;;;;;5.30;4.80;;;;;;;12.52;100.00;96619.59;5072448;27;102992;-73
2022/05/06 00:14:46;;;;;;;6.17;5.30;;;;;;;12.55;100.00;96618.28;5054646;27;101875;-73
2022/05/06 00:17:13;;;;;;;5.23;4.83;;;;;;;12.54;100.00;96627.34;5054089;27;105559;-73
2022/05/06 00:19:42;;;;;;;5.17;4.70;;;;;;;12.56;100.00;96627.91;5053623;27;105530;-73
2022/05/06 00:22:09;;;;;;;5.47;4.70;;;;;;;12.47;100.00;96629.41;5072553;27;101732;-73
2022/05/06 00:24:38;;;;;;;5.57;4.90;;;;;;;12.46;100.00;96627.81;5057379;27;104843;-73
2022/05/06 00:27:05;;;;;;;5.53;5.13;;;;;;;12.48;100.00;96620.38;5054388;27;101972;-73
2022/05/06 00:29:33;;;;;;;5.40;5.00;;;;;;;12.56;100.00;96625.22;5054120;27;105388;-73
2022/05/06 00:32:01;;;;;;;5.20;4.70;;;;;;;12.48;100.00;96620.38;5053674;27;105480;-73
2022/05/06 00:34:28;;;;;;;5.07;4.67;;;;;;;12.57;100.00;96613.50;5054240;27;101877;-73
2022/05/06 00:36:56;;;;;;;4.90;4.50;;;;;;;12.57;100.00;96622.31;5054262;27;105205;-73
2022/05/06 00:39:23;;;;;;;5.60;5.13;;;;;;;12.63;100.00;96623.13;5053422;27;105198;-73
2022/05/06 00:41:55;;;;;;;4.77;4.37;;;;;;;12.60;100.00;96623.66;5054016;27;101960;-73
2022/05/06 00:44:25;;;;;;;6.13;5.23;;;;;;;12.59;100.00;96632.72;5072895;27;102766;-73
2022/05/06 00:46:53;;;;;;;5.63;5.20;;;;;;;12.63;100.00;96625.78;5056543;27;101862;-73
2022/05/06 00:49:21;;;;;;;5.20;4.70;;;;;;;12.62;100.00;96626.88;5053886;27;104865;-73
2022/05/06 00:51:51;;;;;;;5.50;5.00;;;;;;;12.65;100.00;96626.38;5052802;27;105437;-73
2022/05/06 00:54:21;;;;;;;5.57;5.07;;;;;;;12.60;100.00;96629.78;5053944;27;102001;-73
2022/05/06 00:56:48;;;;;;;5.73;5.23;;;;;;;12.66;100.00;96623.44;5053815;27;105637;-73
2022/05/06 00:59:17;;;;;;;5.90;5.40;;;;;;;12.70;100.00;96635.19;5053297;27;105047;-73
2022/05/06 01:01:45;;;;;;;5.63;5.13;;;;;;;12.74;100.00;96630.13;5053648;27;101999;-73
2022/05/06 01:04:17;;;;;;;5.37;4.97;;;;;;;12.69;100.00;96632.78;5053668;27;105216;-73
2022/05/06 01:06:45;;;;;;;5.20;4.70;;;;;;;12.73;100.00;96634.69;5056589;27;105366;-73
2022/05/06 01:09:17;;;;;;;5.60;5.20;;;;;;;12.69;100.00;96632.78;5053769;27;105665;-73
2022/05/06 01:11:47;;;;;;;5.80;5.30;;;;;;;12.68;100.00;96631.16;5053127;27;105614;-73
2022/05/06 01:14:34;;;;;;;5.93;5.33;;;;;;;12.64;100.00;96632.75;5070550;27;101808;-73
2022/05/06 01:17:16;;;;;;;5.83;4.80;;;;;;;12.70;100.00;96629.84;5053462;27;105271;-74
2022/05/06 01:19:43;;;;;;;6.20;5.57;;;;;;;12.62;100.00;96622.34;5052729;27;105056;-74
2022/05/06 01:22:12;;;;;;;5.20;4.70;;;;;;;12.68;100.00;96633.84;5053202;27;101897;-74
2022/05/06 01:24:39;;;;;;;5.27;4.77;;;;;;;12.70;100.00;96634.41;5053098;27;105738;-73
2022/05/06 01:27:10;;;;;;;5.07;4.60;;;;;;;12.72;100.00;96637.59;5052770;27;105257;-73
2022/05/06 01:29:39;;;;;;;4.50;4.10;;;;;;;12.70;100.00;96639.75;5056995;27;101898;-73
2022/05/06 01:32:07;;;;;;;4.70;4.30;;;;;;;12.60;100.00;96639.66;5052881;27;105948;-73
2022/05/06 01:34:39;;;;;;;7.17;4.30;;;;;;;12.52;100.00;96637.47;5053430;27;101969;-73
2022/05/06 01:37:08;;;;;;;4.90;4.40;;;;;;;12.61;100.00;96631.41;5053393;27;105230;-73
2022/05/06 01:39:39;;;;;;;4.73;4.30;;;;;;;12.56;100.00;96631.38;5052398;27;104958;-73
2022/05/06 01:42:12;;;;;;;6.37;4.60;;;;;;;12.58;100.00;96642.59;5070341;27;102121;-73
2022/05/06 01:44:49;;;;;;;5.13;4.63;;;;;;;12.52;100.00;96637.47;5070299;27;104699;-73
2022/05/06 01:47:21;;;;;;;5.80;4.70;;;;;;;12.50;100.00;96639.59;5052389;27;104476;-73
2022/05/06 01:49:50;;;;;;;5.30;4.80;;;;;;;12.46;100.00;96633.16;5052786;27;102066;-73
2022/05/06 01:52:19;;;;;;;5.20;4.80;;;;;;;12.37;100.00;96634.69;5056102;27;103888;-73
2022/05/06 01:54:49;;;;;;;4.83;4.43;;;;;;;12.33;100.00;96638.94;5070126;27;102206;-73
2022/05/06 01:57:18;;;;;;;7.43;4.93;;;;;;;12.27;100.00;96643.41;5071353;27;102534;-73
2022/05/06 01:59:45;;;;;;;5.83;4.77;;;;;;;12.32;100.00;96648.00;5052119;27;105489;-73
2022/05/06 02:02:18;;;;;;;4.77;4.30;;;;;;;12.40;100.00;96639.50;5068913;27;101926;-73
2022/05/06 02:07:36;;;;;;;5.33;4.83;;;;;;;12.32;100.00;96638.13;5052138;27;105393;-73
2022/05/06 02:10:06;;;;;;;5.20;4.70;;;;;;;12.27;100.00;96638.06;5052779;27;102298;-73
2022/05/06 02:12:38;;;;;;;4.60;4.20;;;;;;;12.24;100.00;96638.59;5052458;27;104511;-73
2022/05/06 02:15:11;;;;;;;4.93;4.53;;;;;;;12.16;100.00;96646.25;5055651;27;105578;-73
2022/05/06 02:17:57;;;;;;;4.90;4.50;;;;;;;12.17;100.00;96637.19;5067899;27;102157;-73
2022/05/06 02:20:45;;;;;;;4.93;4.53;;;;;;;12.22;100.00;96639.91;5068705;27;103867;-73
2022/05/06 02:23:32;;;;;;;4.57;4.27;;;;;;;12.27;100.00;96634.63;5052274;27;101916;-73
2022/05/06 02:26:24;;;;;;;4.73;4.10;;;;;;;12.22;100.00;96631.91;5061736;27;102408;-73
2022/05/06 02:28:54;;;;;;;4.60;4.20;;;;;;;12.20;100.00;96639.34;5051987;27;105677;-73
2022/05/06 02:34:16;;;;;;;4.20;3.87;;;;;;;12.10;100.00;96629.41;4993689;27;105315;-73
2022/05/06 02:36:48;;;;;;;4.20;3.90;;;;;;;12.07;100.00;96634.44;5051712;27;105717;-73
2022/05/06 02:39:28;;;;;;;4.33;3.83;;;;;;;12.16;100.00;96632.94;5055713;27;101849;-73
2022/05/06 02:42:09;;;;;;;4.17;3.77;;;;;;;12.19;100.00;96632.41;5051714;27;105027;-73
2022/05/06 02:44:38;;;;;;;4.30;4.00;;;;;;;12.13;100.00;96628.09;5052118;27;101931;-73
2022/05/06 02:47:06;;;;;;;4.53;4.23;;;;;;;12.08;100.00;96631.53;5052084;27;105231;-73
2022/05/06 02:49:34;;;;;;;4.70;4.30;;;;;;;12.11;100.00;96638.22;5051625;27;105504;-73
2022/05/06 02:52:03;;;;;;;3.97;3.70;;;;;;;12.12;100.00;96629.97;5051737;27;101945;-73
2022/05/06 02:54:31;;;;;;;4.47;4.07;;;;;;;12.25;100.00;96636.72;5052475;27;105152;-73
2022/05/06 02:57:00;;;;;;;3.53;3.30;;;;;;;12.12;100.00;96640.63;5051563;27;105559;-73
2022/05/06 02:59:31;;;;;;;3.90;3.60;;;;;;;12.06;100.00;96640.84;5055400;27;102357;-73
2022/05/06 03:01:58;;;;;;;4.03;3.73;;;;;;;12.01;100.00;96641.59;5051818;27;105620;-73
2022/05/06 03:04:26;;;;;;;4.00;3.70;;;;;;;12.00;100.00;96631.97;5052117;27;101922;-73
2022/05/06 03:06:55;;;;;;;3.60;3.40;;;;;;;12.05;100.00;96639.22;5051914;27;105204;-73
2022/05/06 03:09:35;;;;;;;3.70;3.50;;;;;;;12.08;100.00;96641.38;5051523;27;106170;-73
2022/05/06 03:12:02;;;;;;;3.93;3.63;;;;;;;12.11;100.00;96635.56;5051822;27;101889;-73
2022/05/06 03:14:32;;;;;;;3.87;3.57;;;;;;;11.98;100.00;96643.94;5053776;27;105044;-73
2022/05/06 03:17:13;;;;;;;3.70;3.40;;;;;;;11.95;100.00;96637.25;5054765;27;105443;-73
2022/05/06 03:19:40;;;;;;;3.60;3.30;;;;;;;11.98;100.00;96641.28;5073581;27;101916;-73
2022/05/06 03:22:08;;;;;;;4.00;3.30;;;;;;;11.92;100.00;96647.63;5057653;27;105174;-73
2022/05/06 03:24:36;;;;;;;3.90;3.60;;;;;;;11.91;100.00;96635.34;5055375;27;101969;-73
2022/05/06 03:27:04;;;;;;;3.83;3.50;;;;;;;11.92;100.00;96642.28;5055294;27;105789;-73
2022/05/06 03:29:33;;;;;;;3.20;3.00;;;;;;;11.84;100.00;96651.53;5054685;27;105823;-73
2022/05/06 03:32:00;;;;;;;3.47;3.27;;;;;;;11.84;100.00;96651.53;5055313;27;101862;-73
2022/05/06 03:34:29;;;;;;;3.73;3.43;;;;;;;11.88;100.00;96651.88;5055349;27;103528;-73
2022/05/06 03:36:56;;;;;;;3.57;3.27;;;;;;;11.87;100.00;96656.38;5071683;27;104894;-73
2022/05/06 03:39:23;;;;;;;3.50;3.20;;;;;;;11.84;100.00;96656.09;5055211;27;102180;-73
2022/05/06 03:41:59;;;;;;;3.60;3.30;;;;;;;11.80;100.00;96649.63;5055219;27;104573;-73
2022/05/06 03:44:28;;;;;;;3.50;3.20;;;;;;;11.83;100.00;96646.47;5057662;27;105569;-73
2022/05/06 03:46:57;;;;;;;3.30;3.00;;;;;;;11.87;100.00;96650.22;5054875;27;105162;-73
2022/05/06 03:49:30;;;;;;;3.30;3.10;;;;;;;11.92;100.00;96647.63;5054394;27;105605;-73
2022/05/06 03:52:00;;;;;;;3.20;2.87;;;;;;;11.89;100.00;96645.47;5055083;27;101953;-73
2022/05/06 03:54:28;;;;;;;3.30;3.10;;;;;;;11.81;100.00;96656.56;5054753;27;103687;-73
2022/05/06 03:56:56;;;;;;;3.53;3.20;;;;;;;11.82;100.00;96658.19;5054377;27;105434;-73
2022/05/06 03:59:24;;;;;;;3.37;3.17;;;;;;;11.87;100.00;96655.56;5054770;27;101906;-73
2022/05/06 04:02:01;;;;;;;3.20;3.00;;;;;;;11.87;100.00;96648.38;5054874;27;104890;-73
2022/05/06 04:04:31;;;;;;;3.30;3.00;;;;;;;11.87;100.00;96655.56;5053777;27;105402;-73
2022/05/06 04:07:03;;;;;;;3.27;3.07;;;;;;;11.92;100.00;96658.28;5058400;27;102222;-73
2022/05/06 04:09:37;;;;;;;3.60;3.30;;;;;;;11.85;100.00;96663.84;5054186;27;103049;-73
2022/05/06 04:12:05;;;;;;;4.10;3.70;;;;;;;11.91;100.00;96667.34;5054645;27;101884;-73
2022/05/06 04:14:35;;;;;;;4.10;3.70;;;;;;;11.85;100.00;96663.00;5071745;27;104560;-73
2022/05/06 04:17:05;;;;;;;3.90;3.60;;;;;;;11.90;100.00;96671.06;5053714;27;105809;-73
2022/05/06 04:19:34;;;;;;;4.13;3.83;;;;;;;11.94;100.00;96683.63;5054421;27;101895;-73
2022/05/06 04:24:58;;;;;;;3.50;3.30;;;;;;;11.86;100.00;96675.28;5053024;27;104308;-73
2022/05/06 04:27:30;;;;;;;3.70;3.47;;;;;;;11.86;100.00;96669.94;5054795;27;101709;-73
2022/05/06 04:30:00;;;;;;;3.27;3.07;;;;;;;11.87;100.00;96674.22;5057532;27;105218;-73
2022/05/06 04:32:40;;;;;;;3.23;3.03;;;;;;;11.93;100.00;96686.56;5054326;27;102273;-73
2022/05/06 04:35:11;;;;;;;4.10;3.80;;;;;;;11.96;100.00;96684.19;5053898;27;103518;-73
2022/05/06 04:37:38;;;;;;;3.20;3.00;;;;;;;11.85;100.00;96681.66;5053575;27;105410;-73
2022/05/06 04:40:08;;;;;;;3.30;3.10;;;;;;;11.83;100.00;96681.13;5054130;27;101922;-73
2022/05/06 04:42:37;;;;;;;3.43;3.23;;;;;;;11.84;100.00;96688.06;5054233;27;105702;-73
2022/05/06 04:45:05;;;;;;;3.73;3.47;;;;;;;11.77;100.00;96690.13;5070255;27;105359;-73
2022/05/06 04:47:34;;;;;;;3.93;3.30;;;;;;;11.78;100.00;96694.38;5053701;27;102062;-73
2022/05/06 04:50:03;;;;;;;3.53;3.27;;;;;;;11.77;100.00;96698.91;5053828;27;104933;-73
2022/05/06 04:52:30;;;;;;;3.17;2.97;;;;;;;11.78;100.00;96689.06;5056574;27;105465;-73
2022/05/06 04:54:56;;;;;;;3.90;3.33;;;;;;;11.82;100.00;96701.63;5054014;27;105050;-73
2022/05/06 04:57:23;;;;;;;3.73;3.50;;;;;;;11.81;100.00;96696.53;5053068;27;105020;-73
2022/05/06 04:59:50;;;;;;;4.43;4.03;;;;;;;11.75;100.00;96697.53;5053812;27;101938;-73
2022/05/06 05:02:21;;;;;;;4.13;3.70;;;;;;;11.80;100.00;96702.94;5053674;27;105009;-72
2022/05/06 05:04:56;;;;;;;3.90;3.60;;;;;;;11.79;100.00;96701.31;5053081;27;105562;-72
2022/05/06 05:07:26;;;;;;;3.80;3.53;;;;;;;11.82;100.00;96706.16;5053618;27;102284;-72
2022/05/06 05:09:57;;;;;;;4.07;3.77;;;;;;;11.80;100.00;96702.94;5053687;27;104914;-73
2022/05/06 05:12:26;;;;;;;3.97;3.67;;;;;;;11.81;100.00;96701.88;5056453;27;105521;-73
2022/05/06 05:14:54;;;;;;;4.23;3.93;;;;;;;11.76;100.00;96701.81;5053557;27;104062;-72
2022/05/06 05:17:24;;;;;;;4.00;3.70;;;;;;;11.83;100.00;96702.44;5053002;27;105279;-72
2022/05/06 05:19:53;;;;;;;4.00;3.70;;;;;;;11.83;100.00;96702.44;5070437;27;102050;-72
2022/05/06 05:22:20;;;;;;;3.77;3.50;;;;;;;11.77;100.00;96709.56;5053392;27;104951;-73
2022/05/06 05:24:51;;;;;;;3.73;3.43;;;;;;;11.78;100.00;96716.50;5052900;27;104858;-72
2022/05/06 05:27:18;;;;;;;4.33;3.93;;;;;;;11.77;100.00;96708.78;5070514;27;101925;-72
2022/05/06 05:29:47;;;;;;;3.90;3.60;;;;;;;11.77;100.00;96714.88;5053597;27;105029;-72
2022/05/06 05:32:17;;;;;;;4.30;3.90;;;;;;;11.75;100.00;96716.19;5052500;27;105525;-72
2022/05/06 05:34:46;;;;;;;4.43;4.03;;;;;;;11.83;100.00;96708.56;5057061;27;101782;-72
2022/05/06 05:37:17;;;;;;;4.67;4.20;;;;;;;11.83;100.00;96702.44;5069731;27;105638;-72
2022/05/06 05:39:45;;;;;;;4.03;3.63;;;;;;;11.81;100.00;96712.53;5053473;27;101981;-72
2022/05/06 05:42:20;;;;;;;4.57;4.00;;;;;;;11.84;100.00;96714.69;5053309;27;105265;-72
2022/05/06 05:50:21;;;;;;;4.17;3.87;;;;;;;11.77;100.00;96703.44;5053325;27;105055;-72
2022/05/06 05:52:48;;;;;;;4.17;3.87;;;;;;;11.80;100.00;96719.72;5052671;27;104373;-72
2022/05/06 05:55:18;;;;;;;4.83;4.40;;;;;;;11.90;100.00;96721.69;5070288;27;102028;-72
2022/05/06 05:57:48;;;;;;;4.50;4.10;;;;;;;11.84;100.00;96723.47;5055643;27;103465;-72
2022/05/06 06:00:17;;;;;;;4.47;4.10;;;;;;;11.98;100.00;96722.06;5053178;27;101762;-72
2022/05/06 06:02:48;;;;;;;4.50;4.20;;;;;;;11.95;100.00;96730.53;5053114;27;105052;-72
2022/05/06 06:05:16;;;;;;;4.30;3.97;;;;;;;12.01;100.00;96726.91;5052291;27;105446;-72
2022/05/06 06:07:45;;;;;;;4.40;4.00;;;;;;;11.99;100.00;96730.88;5053223;27;102070;-72
2022/05/06 06:10:15;;;;;;;4.80;4.40;;;;;;;12.02;100.00;96728.50;5052953;27;104408;-72
2022/05/06 06:12:42;;;;;;;4.80;4.33;;;;;;;12.06;100.00;96726.13;5052332;27;105302;-72
2022/05/06 06:15:15;;;;;;;4.47;4.17;;;;;;;12.07;100.00;96731.22;5052857;27;101882;-72
2022/05/06 06:17:42;;;;;;;4.77;4.37;;;;;;;12.12;100.00;96725.13;5052455;27;105067;-72
2022/05/06 06:20:11;;;;;;;5.07;4.67;;;;;;;12.08;100.00;96727.50;5055295;27;105103;-72
2022/05/06 06:22:44;;;;;;;5.73;5.13;;;;;;;12.09;100.00;96729.09;5052877;27;104826;-72
2022/05/06 06:25:12;;;;;;;5.00;4.60;;;;;;;12.11;100.00;96736.84;5052055;27;105337;-72
2022/05/06 06:27:41;;;;;;;5.77;5.27;;;;;;;12.03;100.00;96732.78;5052445;27;101899;-72
2022/05/06 06:30:13;;;;;;;6.70;5.43;;;;;;;12.09;100.00;96723.75;5052444;27;104775;-72
2022/05/06 06:32:40;;;;;;;6.37;5.47;;;;;;;12.16;100.00;96727.03;5052175;27;104992;-72
2022/05/06 06:35:11;;;;;;;6.23;5.63;;;;;;;12.09;100.00;96730.94;5052606;27;101798;-72
2022/05/06 06:37:44;;;;;;;5.97;5.43;;;;;;;12.04;100.00;96730.91;5069370;27;104902;-72
2022/05/06 06:40:12;;;;;;;6.17;5.57;;;;;;;12.06;100.00;96734.13;5051836;27;104769;-72
2022/05/06 06:42:42;;;;;;;6.27;5.73;;;;;;;12.07;100.00;96728.56;5055870;27;101899;-72
2022/05/06 06:45:17;;;;;;;6.20;5.60;;;;;;;12.13;100.00;96734.72;5051546;27;105351;-72
2022/05/06 06:47:58;;;;;;;6.80;6.10;;;;;;;11.95;100.00;96729.75;5051695;27;101851;-72
2022/05/06 06:50:42;;;;;;;6.07;5.57;;;;;;;12.14;100.00;96736.34;5051991;27;105264;-72
2022/05/06 06:53:23;;;;;;;6.07;5.47;;;;;;;12.17;100.00;96735.84;5051592;27;104265;-72
2022/05/06 06:55:50;;;;;;;6.50;6.00;;;;;;;12.06;100.00;96734.94;5052121;27;102023;-72
2022/05/06 06:58:17;;;;;;;6.20;5.70;;;;;;;12.13;100.00;96743.53;5069051;27;104959;-72
2022/05/06 07:00:46;;;;;;;6.77;5.73;;;;;;;12.18;100.00;96742.78;5051612;27;105320;-72
2022/05/06 07:03:14;;;;;;;5.83;5.33;;;;;;;12.16;100.00;96739.56;5052057;27;101781;-72
2022/05/06 07:11:52;;;;;;;6.67;6.07;;;;;;;12.11;100.00;96750.19;5071469;27;104922;-72
2022/05/06 07:14:00;;;;;;;7.23;6.53;;;;;;;12.11;100.00;96742.19;5051212;27;105432;-72
2022/05/06 07:16:29;;;;;;;7.10;6.40;;;;;;;12.10;100.00;96748.56;5051487;27;101966;-72
2022/05/06 07:18:56;;;;;;;6.10;5.60;;;;;;;11.96;100.00;96744.69;5070341;27;101754;-72
2022/05/06 07:21:23;;;;;;;6.80;6.20;;;;;;;11.99;100.00;96746.84;5050486;27;105363;-72
2022/05/06 07:23:49;;;;;;;6.80;6.10;;;;;;;11.96;100.00;96750.81;5070213;27;101874;-72
2022/05/06 07:26:17;;;;;;;6.50;6.00;;;;;;;12.06;100.00;96745.63;5054415;27;104898;-72
2022/05/06 07:28:43;;;;;;;7.27;6.67;;;;;;;12.01;100.00;96739.41;5051523;27;101895;-72
2022/05/06 07:31:10;;;;;;;7.00;6.40;;;;;;;12.03;100.00;96742.63;5051502;27;105859;-72
2022/05/06 07:33:39;;;;;;;7.80;7.07;;;;;;;12.05;100.00;96748.53;5050772;27;105340;-72
2022/05/06 07:36:07;;;;;;;8.27;7.37;;;;;;;11.93;100.00;96753.19;5051574;27;101969;-72
2022/05/06 07:38:33;;;;;;;7.43;6.73;;;;;;;12.07;100.00;96749.06;5051845;27;106195;-72
2022/05/06 07:41:01;;;;;;;7.63;6.77;;;;;;;12.12;100.00;96749.94;5069202;27;102806;-72
2022/05/06 07:43:28;;;;;;;8.03;7.23;;;;;;;12.07;100.00;96751.72;5051599;27;102034;-72
2022/05/06 07:45:55;;;;;;;7.87;7.17;;;;;;;12.02;100.00;96741.00;5051543;27;104871;-72
2022/05/06 07:48:22;;;;;;;7.67;6.97;;;;;;;12.19;100.00;96749.72;5054455;27;105387;-72
2022/05/06 07:50:50;;;;;;;8.03;7.17;;;;;;;12.21;100.00;96747.63;5051444;27;103655;-72
2022/05/06 07:53:17;;;;;;;7.87;7.07;;;;;;;12.15;100.00;96743.28;5050981;27;105750;-72
2022/05/06 07:55:44;;;;;;;8.00;7.30;;;;;;;12.21;100.00;96747.63;5051038;27;102052;-72
2022/05/06 07:58:12;;;;;;;7.70;7.07;;;;;;;12.13;100.00;96750.72;5051268;27;105068;-72
2022/05/06 08:00:39;;;;;;;8.23;7.53;;;;;;;12.23;100.00;96750.84;5051090;27;105074;-72
2022/05/06 08:05:56;;;;;;;8.67;7.77;;;;;;;12.48;100.00;96754.53;5054263;27;104742;-72
2022/05/06 08:08:25;;;;;;;8.47;7.70;;;;;;;12.36;100.00;96755.75;5053824;27;105519;-72
2022/05/06 08:10:52;;;;;;;8.33;7.47;;;;;;;12.39;100.00;96749.94;5057662;27;102022;-72
2022/05/06 08:13:19;;;;;;;8.50;7.70;;;;;;;12.26;100.00;96755.69;5054096;27;105039;-72
2022/05/06 08:15:46;;;;;;;8.60;7.90;;;;;;;12.28;100.00;96759.69;5054686;27;102010;-72
2022/05/06 08:18:13;;;;;;;9.23;8.37;;;;;;;12.36;100.00;96755.75;5072994;27;102551;-72
2022/05/06 08:20:41;;;;;;;9.20;8.30;;;;;;;12.38;100.00;96765.09;5053741;27;103396;-72
2022/05/06 08:23:10;;;;;;;9.10;8.30;;;;;;;12.43;100.00;96764.38;5054523;27;101813;-72
2022/05/06 08:25:38;;;;;;;9.13;8.23;;;;;;;12.48;100.00;96767.09;5054582;27;103714;-73
2022/05/06 08:28:07;;;;;;;10.70;9.70;;;;;;;12.49;100.00;96764.16;5053625;27;105990;-73
2022/05/06 08:30:35;;;;;;;11.23;8.97;;;;;;;12.53;100.00;96772.47;5054410;27;101878;-68
2022/05/06 08:33:03;;;;;;;14.17;12.67;;;;;;;12.48;100.00;96767.09;5051137;27;104974;-66
2022/05/06 08:35:31;;;;;;;13.30;12.00;;;;;;;12.56;100.00;96762.09;5069056;27;101952;-65
2022/05/06 08:37:58;;;;;;;10.87;9.87;;;;;;;12.69;100.00;96766.19;5071511;27;102910;-68
2022/05/06 08:40:29;;;;;;;10.50;9.60;;;;;;;12.70;100.00;96765.16;5053477;27;105458;-65
2022/05/06 08:42:58;;;;;;;10.90;9.90;;;;;;;12.80;100.00;96762.56;5053914;27;102271;-68
2022/05/06 08:50:57;;;;;;;10.23;9.20;;;;;;;12.90;100.00;96762.63;5053642;27;101843;-66
2022/05/06 08:53:26;;;;;;;11.60;10.40;;;;;;;13.03;100.00;96767.56;5053548;27;105282;-68
2022/05/06 08:55:57;;;;;;;11.10;10.03;;;;;;;13.17;100.00;96766.06;5055645;27;105046;-69
2022/05/06 08:58:25;;;;;;;10.80;9.80;;;;;;;13.20;100.00;96765.56;5052570;27;105237;-72
2022/05/06 09:01:02;;;;;;;11.07;10.17;;;;;;;13.34;100.00;96770.19;5053137;27;106023;-70
2022/05/06 09:03:29;;;;;;;11.10;10.10;;;;;;;13.36;100.00;96757.38;5052788;27;101912;-72
2022/05/06 09:05:58;;;;;;;11.73;10.57;;;;;;;13.26;100.00;96761.84;5052343;27;105170;-67
2022/05/06 09:08:37;;;;;;;11.83;10.83;;;;;;;13.23;100.00;96762.34;5051700;27;105888;-67
2022/05/06 09:11:08;;;;;;;11.17;10.27;;;;;;;13.33;100.00;96762.41;5051911;27;101982;-67
2022/05/06 09:13:36;;;;;;;11.43;10.43;;;;;;;13.24;100.00;96774.69;5070272;27;102610;-67
2022/05/06 09:19:17;;;;;;;11.60;10.53;;;;;;;13.51;100.00;96778.03;5056899;27;101891;-67
2022/05/06 09:22:06;;;;;;;12.07;10.97;;;;;;;13.67;100.00;96777.84;5051456;27;105244;-67
2022/05/06 09:24:35;;;;;;;11.50;10.43;;;;;;;13.61;100.00;96770.88;5071018;27;101714;-67
2022/05/06 09:27:06;;;;;;;11.80;10.70;;;;;;;13.72;100.00;96771.72;5052247;27;105206;-67
2022/05/06 09:29:36;;;;;;;12.03;11.00;;;;;;;13.57;100.00;96769.00;5052045;27;105715;-67
2022/05/06 09:32:21;;;;;;;11.30;10.30;;;;;;;13.76;100.00;96778.16;5052388;27;101792;-67
2022/05/06 09:34:50;;;;;;;11.70;10.67;;;;;;;13.98;100.00;96778.78;5052440;27;104173;-67
2022/05/06 09:37:36;;;;;;;12.67;11.47;;;;;;;14.06;100.00;96772.94;5051159;27;105815;-67
2022/05/06 09:40:07;;;;;;;12.73;11.53;;;;;;;14.14;100.00;96783.94;5055249;27;102015;-67
2022/05/06 09:42:37;;;;;;;12.37;11.20;;;;;;;14.31;100.00;96781.06;5069081;27;105739;-67
2022/05/06 09:45:05;;;;;;;12.87;11.77;;;;;;;14.22;100.00;96777.31;5070608;27;101845;-67
2022/05/06 09:47:33;;;;;;;12.63;11.33;;;;;;;14.21;100.00;96778.34;5052142;27;105798;-67
2022/05/06 09:50:01;;;;;;;13.43;12.23;;;;;;;14.40;100.00;96774.13;5051414;27;104623;-67
2022/05/06 09:52:28;;;;;;;13.40;12.20;;;;;;;14.29;100.00;96772.50;5052069;27;101844;-67
2022/05/06 09:54:57;;;;;;;13.93;12.67;;;;;;;14.21;100.00;96775.66;5051991;27;105553;-67
2022/05/06 09:57:25;;;;;;;12.93;11.73;;;;;;;14.36;100.00;96776.53;5051570;27;105410;-67
2022/05/06 09:59:54;;;;;;;12.43;11.33;;;;;;;14.26;100.00;96770.34;5070389;27;101945;-67
2022/05/06 10:02:21;;;;;;;13.50;12.30;;;;;;;14.14;100.00;96775.09;5054886;27;105530;-67
2022/05/06 10:04:49;;;;;;;12.83;11.57;;;;;;;13.80;100.00;96768.56;5052115;27;101903;-67
2022/05/06 10:07:18;;;;;;;13.30;12.10;;;;;;;13.81;100.00;96776.31;5051607;27;105259;-67
2022/05/06 10:09:54;;;;;;;13.60;12.40;;;;;;;13.59;100.00;96765.00;5051426;27;105864;-67
2022/05/06 10:12:24;;;;;;;14.60;13.20;;;;;;;13.46;100.00;96760.09;5070365;27;101738;-67
2022/05/06 10:14:56;;;;;;;15.17;13.77;;;;;;;13.91;100.00;96759.50;5052047;27;105293;-67
2022/05/06 10:17:48;;;;;;;14.53;12.97;;;;;;;14.12;100.00;96751.28;5069800;27;103173;-67
2022/05/06 10:20:48;;;;;;;14.57;13.23;;;;;;;13.90;100.00;96757.91;5069557;27;102114;-67
2022/05/06 10:23:18;;;;;;;14.77;13.37;;;;;;;13.99;100.00;96751.78;5069527;27;102512;-67
2022/05/06 10:25:55;;;;;;;15.83;14.27;;;;;;;14.11;100.00;96754.25;5071443;27;105681;-67
2022/05/06 10:34:33;;;;;;;15.73;14.30;;;;;;;15.19;100.00;96751.94;5051105;27;101937;-67
2022/05/06 10:37:02;;;;;;;15.37;14.00;;;;;;;15.05;100.00;96755.44;5069639;27;102758;-67
2022/05/06 10:39:35;;;;;;;15.50;14.10;;;;;;;15.48;100.00;96752.19;5051144;27;105446;-67
2022/05/06 10:42:05;;;;;;;14.33;13.03;;;;;;;15.42;100.00;96750.59;5051217;27;101878;-67
2022/05/06 10:44:34;;;;;;;14.50;13.13;;;;;;;15.33;100.00;96753.03;5051610;27;105536;-67
2022/05/06 10:47:04;;;;;;;15.07;13.60;;;;;;;15.16;100.00;96749.78;5050528;27;105996;-67
2022/05/06 10:49:52;;;;;;;14.27;12.97;;;;;;;15.18;100.00;96758.38;5054804;27;102151;-67
2022/05/06 10:52:47;;;;;;;14.87;13.37;;;;;;;14.75;100.00;96750.88;5069274;27;102878;-67
2022/05/06 10:55:17;;;;;;;14.53;13.23;;;;;;;15.01;100.00;96751.69;5051363;27;101996;-67
2022/05/06 10:58:03;;;;;;;13.67;12.47;;;;;;;14.93;100.00;96744.97;5050996;27;105165;-67
2022/05/06 11:00:33;;;;;;;14.57;13.27;;;;;;;14.72;100.00;96746.06;5067822;27;105712;-67
2022/05/06 11:03:02;;;;;;;15.57;13.87;;;;;;;14.89;100.00;96751.16;5051164;27;101876;-67
2022/05/06 11:05:31;;;;;;;16.77;14.10;;;;;;;14.52;100.00;96745.25;5069262;27;102823;-67
2022/05/06 11:08:01;;;;;;;14.70;13.30;;;;;;;14.66;100.00;96743.66;5068842;27;102809;-67
2022/05/06 11:10:30;;;;;;;15.23;13.63;;;;;;;14.91;100.00;96749.81;5069353;27;101890;-67
2022/05/06 11:12:59;;;;;;;15.20;13.80;;;;;;;14.94;100.00;96749.25;5053989;27;105401;-67
2022/05/06 11:15:30;;;;;;;16.07;13.73;;;;;;;15.26;100.00;96744.41;5050857;27;101865;-67
2022/05/06 11:17:59;;;;;;;16.03;14.57;;;;;;;15.30;100.00;96740.13;5069547;27;102901;-67
2022/05/06 11:20:31;;;;;;;14.63;13.33;;;;;;;15.28;100.00;96738.78;5049626;27;105953;-67
2022/05/06 11:23:01;;;;;;;15.33;13.97;;;;;;;15.44;100.00;96737.72;5050943;27;101993;-67
2022/05/06 11:25:45;;;;;;;14.90;13.57;;;;;;;15.23;100.00;96730.75;5050883;27;105181;-67
2022/05/06 11:28:15;;;;;;;15.27;13.80;;;;;;;15.72;100.00;96724.50;4948832;28;105542;-67
2022/05/06 11:30:45;;;;;;;15.37;14.00;;;;;;;15.91;100.00;96725.47;4966365;28;101931;-67
2022/05/06 11:33:24;;;;;;;14.77;13.43;;;;;;;15.81;100.00;96722.03;4949463;28;105265;-67
2022/05/06 11:36:01;;;;;;;15.97;14.53;;;;;;;15.67;100.00;96723.69;4954690;28;101892;-67
2022/05/06 11:38:33;;;;;;;15.40;14.00;;;;;;;15.87;100.00;96720.94;4969791;28;105118;-67
2022/05/06 11:41:08;;;;;;;16.37;14.77;;;;;;;15.80;100.00;96721.22;4969553;28;102831;-67
2022/05/06 11:43:35;;;;;;;17.60;15.90;;;;;;;15.59;100.00;96722.38;4969480;28;102159;-67
2022/05/06 11:48:48;;;;;;;16.40;14.83;;;;;;;15.71;100.00;96722.88;4952174;28;105491;-67
2022/05/06 11:51:22;;;;;;;15.77;14.27;;;;;;;15.60;100.00;96723.19;4969615;28;102071;-67
2022/05/06 11:53:50;;;;;;;16.37;14.87;;;;;;;15.93;100.00;96719.81;4953020;28;105641;-67
2022/05/06 11:56:22;;;;;;;15.13;13.77;;;;;;;16.16;100.00;96717.28;4972429;28;105527;-67
2022/05/06 11:58:51;;;;;;;16.53;14.83;;;;;;;16.41;100.00;96713.69;4952472;28;105308;-67
2022/05/06 12:01:29;;;;;;;16.17;14.67;;;;;;;16.04;100.00;96716.84;4952185;28;105702;-67
2022/05/06 12:04:00;;;;;;;17.40;15.70;;;;;;;15.60;100.00;96712.47;4969279;28;101927;-67
2022/05/06 12:06:31;;;;;;;16.20;14.70;;;;;;;16.14;100.00;96716.75;5062464;27;104154;-67
2022/05/06 12:09:10;;;;;;;18.77;16.93;;;;;;;15.64;100.00;96716.22;5051657;27;106357;-67